sensor_id;sensor_type;location;lat;lon;timestamp;temperature;humidity
20081;DHT22;10200;49.232;9.222;2023-04-25T00:01:05;10.70;99.90
20081;DHT22;10200;49.232;9.222;2023-04-25T00:03:34;10.70;99.90
20081;DHT22;10200;49.232;9.222;2023-04-25T00:06:00;10.60;99.90
20081;DHT22;10200;49.232;9.222;2023-04-25T00:08:29;10.60;99.90
20081;DHT22;10200;49.232;9.222;2023-04-25T00:10:56;10.60;99.90
20081;DHT22;10200;49.232;9.222;2023-04-25T00:13:22;10.60;99.90
20081;DHT22;10200;49.232;9.222;2023-04-25T00:15:48;10.60;99.90
20081;DHT22;10200;49.232;9.222;2023-04-25T00:18:14;10.60;99.90
20081;DHT22;10200;49.232;9.222;2023-04-25T00:20:40;10.60;99.90
20081;DHT22;10200;49.232;9.222;2023-04-25T00:23:09;10.70;99.90
20081;DHT22;10200;49.232;9.222;2023-04-25T00:25:35;10.70;99.90
20081;DHT22;10200;49.232;9.222;2023-04-25T00:28:01;10.70;99.90
20081;DHT22;10200;49.232;9.222;2023-04-25T00:30:27;10.60;99.90
20081;DHT22;10200;49.232;9.222;2023-04-25T00:32:52;10.60;99.90
20081;DHT22;10200;49.232;9.222;2023-04-25T00:35:18;10.60;99.90
20081;DHT22;10200;49.232;9.222;2023-04-25T00:37:44;10.60;99.90
20081;DHT22;10200;49.232;9.222;2023-04-25T00:40:10;10.50;99.90
20081;DHT22;10200;49.232;9.222;2023-04-25T00:42:39;10.60;99.90
20081;DHT22;10200;49.232;9.222;2023-04-25T00:45:07;10.60;99.90
20081;DHT22;10200;49.232;9.222;2023-04-25T00:47:35;10.70;99.90
20081;DHT22;10200;49.232;9.222;2023-04-25T00:50:01;10.70;99.90
20081;DHT22;10200;49.232;9.222;2023-04-25T00:52:27;10.60;99.90
20081;DHT22;10200;49.232;9.222;2023-04-25T00:54:52;10.60;99.90
20081;DHT22;10200;49.232;9.222;2023-04-25T00:57:18;10.50;99.90
20081;DHT22;10200;49.232;9.222;2023-04-25T00:59:45;10.50;99.90
20081;DHT22;10200;49.232;9.222;2023-04-25T01:02:12;10.50;99.90
20081;DHT22;10200;49.232;9.222;2023-04-25T01:04:38;10.50;99.90
20081;DHT22;10200;49.232;9.222;2023-04-25T01:07:04;10.50;99.90
20081;DHT22;10200;49.232;9.222;2023-04-25T01:09:30;10.50;99.90
20081;DHT22;10200;49.232;9.222;2023-04-25T01:11:57;10.60;99.90
20081;DHT22;10200;49.232;9.222;2023-04-25T01:14:23;10.60;99.90
20081;DHT22;10200;49.232;9.222;2023-04-25T01:16:49;10.60;99.90
20081;DHT22;10200;49.232;9.222;2023-04-25T01:19:17;10.60;99.90
20081;DHT22;10200;49.232;9.222;2023-04-25T01:21:43;10.60;99.90
20081;DHT22;10200;49.232;9.222;2023-04-25T01:24:09;10.60;99.90
20081;DHT22;10200;49.232;9.222;2023-04-25T01:26:36;10.60;99.90
20081;DHT22;10200;49.232;9.222;2023-04-25T01:29:03;10.60;99.90
20081;DHT22;10200;49.232;9.222;2023-04-25T01:31:29;10.50;99.90
20081;DHT22;10200;49.232;9.222;2023-04-25T01:33:56;10.60;99.90
20081;DHT22;10200;49.232;9.222;2023-04-25T01:36:22;10.60;99.90
20081;DHT22;10200;49.232;9.222;2023-04-25T01:38:48;10.60;99.90
20081;DHT22;10200;49.232;9.222;2023-04-25T01:41:14;10.50;99.90
20081;DHT22;10200;49.232;9.222;2023-04-25T01:43:40;10.50;99.90
20081;DHT22;10200;49.232;9.222;2023-04-25T01:46:06;10.50;99.90
20081;DHT22;10200;49.232;9.222;2023-04-25T01:48:32;10.40;99.90
20081;DHT22;10200;49.232;9.222;2023-04-25T01:50:58;10.40;99.90
20081;DHT22;10200;49.232;9.222;2023-04-25T01:53:24;10.40;99.90
20081;DHT22;10200;49.232;9.222;2023-04-25T01:55:50;10.40;99.90
20081;DHT22;10200;49.232;9.222;2023-04-25T01:58:15;10.40;99.90
20081;DHT22;10200;49.232;9.222;2023-04-25T02:00:41;10.40;99.90
20081;DHT22;10200;49.232;9.222;2023-04-25T02:03:07;10.40;99.90
20081;DHT22;10200;49.232;9.222;2023-04-25T02:05:37;10.40;99.90
20081;DHT22;10200;49.232;9.222;2023-04-25T02:08:10;10.40;99.90
20081;DHT22;10200;49.232;9.222;2023-04-25T02:10:36;10.40;99.90
20081;DHT22;10200;49.232;9.222;2023-04-25T02:13:02;10.40;99.90
20081;DHT22;10200;49.232;9.222;2023-04-25T02:15:29;10.40;99.90
20081;DHT22;10200;49.232;9.222;2023-04-25T02:17:55;10.40;99.90
20081;DHT22;10200;49.232;9.222;2023-04-25T02:20:22;10.40;99.90
20081;DHT22;10200;49.232;9.222;2023-04-25T02:22:48;10.40;99.90
20081;DHT22;10200;49.232;9.222;2023-04-25T02:25:14;10.50;99.90
20081;DHT22;10200;49.232;9.222;2023-04-25T02:27:41;10.50;99.90
20081;DHT22;10200;49.232;9.222;2023-04-25T02:30:07;10.50;99.90
20081;DHT22;10200;49.232;9.222;2023-04-25T02:32:33;10.50;99.90
20081;DHT22;10200;49.232;9.222;2023-04-25T02:35:00;10.60;99.90
20081;DHT22;10200;49.232;9.222;2023-04-25T02:37:30;10.50;99.90
20081;DHT22;10200;49.232;9.222;2023-04-25T02:39:55;10.50;99.90
20081;DHT22;10200;49.232;9.222;2023-04-25T02:42:21;10.50;99.90
20081;DHT22;10200;49.232;9.222;2023-04-25T02:44:47;10.50;99.90
20081;DHT22;10200;49.232;9.222;2023-04-25T02:47:12;10.50;99.90
20081;DHT22;10200;49.232;9.222;2023-04-25T02:49:38;10.50;99.90
20081;DHT22;10200;49.232;9.222;2023-04-25T02:52:05;10.50;99.90
20081;DHT22;10200;49.232;9.222;2023-04-25T02:54:31;10.50;99.90
20081;DHT22;10200;49.232;9.222;2023-04-25T02:56:57;10.50;99.90
20081;DHT22;10200;49.232;9.222;2023-04-25T02:59:23;10.50;99.90
20081;DHT22;10200;49.232;9.222;2023-04-25T03:01:48;10.50;99.90
20081;DHT22;10200;49.232;9.222;2023-04-25T03:04:14;10.50;99.90
20081;DHT22;10200;49.232;9.222;2023-04-25T03:06:40;10.50;99.90
20081;DHT22;10200;49.232;9.222;2023-04-25T03:09:05;10.50;99.90
20081;DHT22;10200;49.232;9.222;2023-04-25T03:11:31;10.50;99.90
20081;DHT22;10200;49.232;9.222;2023-04-25T03:13:57;10.60;99.90
20081;DHT22;10200;49.232;9.222;2023-04-25T03:16:24;10.60;99.90
20081;DHT22;10200;49.232;9.222;2023-04-25T03:18:49;10.50;99.90
20081;DHT22;10200;49.232;9.222;2023-04-25T03:21:16;10.50;99.90
20081;DHT22;10200;49.232;9.222;2023-04-25T03:23:42;10.50;99.90
20081;DHT22;10200;49.232;9.222;2023-04-25T03:26:07;10.40;99.90
20081;DHT22;10200;49.232;9.222;2023-04-25T03:28:33;10.40;99.90
20081;DHT22;10200;49.232;9.222;2023-04-25T03:30:59;10.40;99.90
20081;DHT22;10200;49.232;9.222;2023-04-25T03:33:24;10.40;99.90
20081;DHT22;10200;49.232;9.222;2023-04-25T03:35:50;10.40;99.90
20081;DHT22;10200;49.232;9.222;2023-04-25T03:38:16;10.50;99.90
20081;DHT22;10200;49.232;9.222;2023-04-25T03:40:42;10.40;99.90
20081;DHT22;10200;49.232;9.222;2023-04-25T03:43:08;10.40;99.90
20081;DHT22;10200;49.232;9.222;2023-04-25T03:45:33;10.40;99.90
20081;DHT22;10200;49.232;9.222;2023-04-25T03:47:59;10.40;99.90
20081;DHT22;10200;49.232;9.222;2023-04-25T03:50:26;10.40;99.90
20081;DHT22;10200;49.232;9.222;2023-04-25T03:52:51;10.30;99.90
20081;DHT22;10200;49.232;9.222;2023-04-25T03:55:17;10.40;99.90
20081;DHT22;10200;49.232;9.222;2023-04-25T03:57:43;10.30;99.90
20081;DHT22;10200;49.232;9.222;2023-04-25T04:00:09;10.30;99.90
20081;DHT22;10200;49.232;9.222;2023-04-25T04:02:35;10.30;99.90
20081;DHT22;10200;49.232;9.222;2023-04-25T04:05:02;10.30;99.90
20081;DHT22;10200;49.232;9.222;2023-04-25T04:07:28;10.30;99.90
20081;DHT22;10200;49.232;9.222;2023-04-25T04:09:53;10.30;99.90
20081;DHT22;10200;49.232;9.222;2023-04-25T04:12:19;10.30;99.90
20081;DHT22;10200;49.232;9.222;2023-04-25T04:14:45;10.30;99.90
20081;DHT22;10200;49.232;9.222;2023-04-25T04:17:10;10.30;99.90
20081;DHT22;10200;49.232;9.222;2023-04-25T04:19:36;10.30;99.90
20081;DHT22;10200;49.232;9.222;2023-04-25T04:22:02;10.30;99.90
20081;DHT22;10200;49.232;9.222;2023-04-25T04:24:28;10.20;99.90
20081;DHT22;10200;49.232;9.222;2023-04-25T04:26:53;10.20;99.90
20081;DHT22;10200;49.232;9.222;2023-04-25T04:29:19;10.20;99.90
20081;DHT22;10200;49.232;9.222;2023-04-25T04:31:50;10.20;99.90
20081;DHT22;10200;49.232;9.222;2023-04-25T04:34:16;10.20;99.90
20081;DHT22;10200;49.232;9.222;2023-04-25T04:36:44;10.20;99.90
20081;DHT22;10200;49.232;9.222;2023-04-25T04:39:12;10.20;99.90
20081;DHT22;10200;49.232;9.222;2023-04-25T04:41:38;10.20;99.90
20081;DHT22;10200;49.232;9.222;2023-04-25T04:44:04;10.20;99.90
20081;DHT22;10200;49.232;9.222;2023-04-25T04:46:29;10.30;99.90
20081;DHT22;10200;49.232;9.222;2023-04-25T04:48:56;10.20;99.90
20081;DHT22;10200;49.232;9.222;2023-04-25T04:51:22;10.20;99.90
20081;DHT22;10200;49.232;9.222;2023-04-25T04:53:48;10.20;99.90
20081;DHT22;10200;49.232;9.222;2023-04-25T04:56:13;10.20;99.90
20081;DHT22;10200;49.232;9.222;2023-04-25T04:58:39;10.20;99.90
20081;DHT22;10200;49.232;9.222;2023-04-25T05:01:05;10.20;99.90
20081;DHT22;10200;49.232;9.222;2023-04-25T05:03:31;10.30;99.90
20081;DHT22;10200;49.232;9.222;2023-04-25T05:05:56;10.30;99.90
20081;DHT22;10200;49.232;9.222;2023-04-25T05:08:22;10.30;99.90
20081;DHT22;10200;49.232;9.222;2023-04-25T05:10:48;10.20;99.90
20081;DHT22;10200;49.232;9.222;2023-04-25T05:13:13;10.20;99.90
20081;DHT22;10200;49.232;9.222;2023-04-25T05:15:39;10.20;99.90
20081;DHT22;10200;49.232;9.222;2023-04-25T05:18:04;10.10;99.90
20081;DHT22;10200;49.232;9.222;2023-04-25T05:20:30;10.10;99.90
20081;DHT22;10200;49.232;9.222;2023-04-25T05:22:56;10.10;99.90
20081;DHT22;10200;49.232;9.222;2023-04-25T05:25:21;10.10;99.90
20081;DHT22;10200;49.232;9.222;2023-04-25T05:27:47;10.10;99.90
20081;DHT22;10200;49.232;9.222;2023-04-25T05:30:12;10.10;99.90
20081;DHT22;10200;49.232;9.222;2023-04-25T05:32:38;10.10;99.90
20081;DHT22;10200;49.232;9.222;2023-04-25T05:35:04;10.10;99.90
20081;DHT22;10200;49.232;9.222;2023-04-25T05:37:32;10.10;99.90
20081;DHT22;10200;49.232;9.222;2023-04-25T05:39:58;10.20;99.90
20081;DHT22;10200;49.232;9.222;2023-04-25T05:42:23;10.20;99.90
20081;DHT22;10200;49.232;9.222;2023-04-25T05:44:49;10.20;99.90
20081;DHT22;10200;49.232;9.222;2023-04-25T05:47:14;10.30;99.90
20081;DHT22;10200;49.232;9.222;2023-04-25T05:49:40;10.20;99.90
20081;DHT22;10200;49.232;9.222;2023-04-25T05:52:06;10.20;99.90
20081;DHT22;10200;49.232;9.222;2023-04-25T05:54:31;10.20;99.90
20081;DHT22;10200;49.232;9.222;2023-04-25T05:56:57;10.20;99.90
20081;DHT22;10200;49.232;9.222;2023-04-25T05:59:23;10.30;99.90
20081;DHT22;10200;49.232;9.222;2023-04-25T06:01:48;10.20;99.90
20081;DHT22;10200;49.232;9.222;2023-04-25T06:04:14;10.20;99.90
20081;DHT22;10200;49.232;9.222;2023-04-25T06:06:39;10.20;99.90
20081;DHT22;10200;49.232;9.222;2023-04-25T06:09:05;10.30;99.90
20081;DHT22;10200;49.232;9.222;2023-04-25T06:11:31;10.20;99.90
20081;DHT22;10200;49.232;9.222;2023-04-25T06:13:56;10.30;99.90
20081;DHT22;10200;49.232;9.222;2023-04-25T06:16:22;10.30;99.90
20081;DHT22;10200;49.232;9.222;2023-04-25T06:18:48;10.40;99.90
20081;DHT22;10200;49.232;9.222;2023-04-25T06:21:13;10.40;99.90
20081;DHT22;10200;49.232;9.222;2023-04-25T06:23:39;10.50;99.90
20081;DHT22;10200;49.232;9.222;2023-04-25T06:26:04;10.60;99.90
20081;DHT22;10200;49.232;9.222;2023-04-25T06:28:30;10.70;99.90
20081;DHT22;10200;49.232;9.222;2023-04-25T06:30:55;10.80;99.90
20081;DHT22;10200;49.232;9.222;2023-04-25T06:33:21;10.90;99.90
20081;DHT22;10200;49.232;9.222;2023-04-25T06:35:47;11.00;99.90
20081;DHT22;10200;49.232;9.222;2023-04-25T06:38:13;10.90;99.90
20081;DHT22;10200;49.232;9.222;2023-04-25T06:40:38;11.00;99.90
20081;DHT22;10200;49.232;9.222;2023-04-25T06:43:04;11.00;99.90
20081;DHT22;10200;49.232;9.222;2023-04-25T06:45:30;10.90;99.90
20081;DHT22;10200;49.232;9.222;2023-04-25T06:47:56;10.90;99.90
20081;DHT22;10200;49.232;9.222;2023-04-25T06:50:21;10.90;99.90
20081;DHT22;10200;49.232;9.222;2023-04-25T06:52:47;10.90;99.90
20081;DHT22;10200;49.232;9.222;2023-04-25T06:55:12;11.00;99.90
20081;DHT22;10200;49.232;9.222;2023-04-25T06:57:38;11.00;99.90
20081;DHT22;10200;49.232;9.222;2023-04-25T07:00:04;11.10;99.90
20081;DHT22;10200;49.232;9.222;2023-04-25T07:02:36;11.30;99.90
20081;DHT22;10200;49.232;9.222;2023-04-25T07:05:03;11.40;99.90
20081;DHT22;10200;49.232;9.222;2023-04-25T07:07:30;11.60;99.90
20081;DHT22;10200;49.232;9.222;2023-04-25T07:09:56;11.60;99.90
20081;DHT22;10200;49.232;9.222;2023-04-25T07:12:21;11.60;99.90
20081;DHT22;10200;49.232;9.222;2023-04-25T07:14:47;11.50;99.90
20081;DHT22;10200;49.232;9.222;2023-04-25T07:17:13;11.50;99.90
20081;DHT22;10200;49.232;9.222;2023-04-25T07:19:38;11.40;99.90
20081;DHT22;10200;49.232;9.222;2023-04-25T07:22:05;11.40;99.90
20081;DHT22;10200;49.232;9.222;2023-04-25T07:34:38;11.60;99.90
20081;DHT22;10200;49.232;9.222;2023-04-25T07:37:04;11.60;99.90
20081;DHT22;10200;49.232;9.222;2023-04-25T07:39:30;11.70;99.90
20081;DHT22;10200;49.232;9.222;2023-04-25T07:41:56;11.70;99.90
20081;DHT22;10200;49.232;9.222;2023-04-25T07:44:23;11.80;99.90
20081;DHT22;10200;49.232;9.222;2023-04-25T07:46:49;11.80;99.90
20081;DHT22;10200;49.232;9.222;2023-04-25T07:49:15;11.80;99.90
20081;DHT22;10200;49.232;9.222;2023-04-25T07:51:41;11.80;99.90
20081;DHT22;10200;49.232;9.222;2023-04-25T07:54:09;11.80;99.90
20081;DHT22;10200;49.232;9.222;2023-04-25T07:56:35;11.80;99.90
20081;DHT22;10200;49.232;9.222;2023-04-25T07:59:00;11.90;99.90
20081;DHT22;10200;49.232;9.222;2023-04-25T08:01:26;11.90;99.90
20081;DHT22;10200;49.232;9.222;2023-04-25T08:03:52;12.00;99.90
20081;DHT22;10200;49.232;9.222;2023-04-25T08:06:18;12.00;99.90
20081;DHT22;10200;49.232;9.222;2023-04-25T08:08:44;12.10;99.90
20081;DHT22;10200;49.232;9.222;2023-04-25T08:11:09;12.20;99.90
20081;DHT22;10200;49.232;9.222;2023-04-25T08:13:35;12.40;99.90
20081;DHT22;10200;49.232;9.222;2023-04-25T08:16:01;12.60;99.90
20081;DHT22;10200;49.232;9.222;2023-04-25T08:18:27;12.60;99.90
20081;DHT22;10200;49.232;9.222;2023-04-25T08:20:53;12.70;99.90
20081;DHT22;10200;49.232;9.222;2023-04-25T08:23:19;12.60;99.90
20081;DHT22;10200;49.232;9.222;2023-04-25T08:25:44;12.60;99.90
20081;DHT22;10200;49.232;9.222;2023-04-25T08:28:10;12.40;99.90
20081;DHT22;10200;49.232;9.222;2023-04-25T08:30:36;12.50;99.90
20081;DHT22;10200;49.232;9.222;2023-04-25T08:33:02;12.40;99.90
20081;DHT22;10200;49.232;9.222;2023-04-25T08:35:28;12.40;99.90
20081;DHT22;10200;49.232;9.222;2023-04-25T08:37:54;12.30;99.90
20081;DHT22;10200;49.232;9.222;2023-04-25T08:40:22;12.30;99.90
20081;DHT22;10200;49.232;9.222;2023-04-25T08:42:54;12.20;99.90
20081;DHT22;10200;49.232;9.222;2023-04-25T08:45:21;12.20;99.90
20081;DHT22;10200;49.232;9.222;2023-04-25T08:47:47;12.00;99.90
20081;DHT22;10200;49.232;9.222;2023-04-25T08:50:17;11.70;99.90
20081;DHT22;10200;49.232;9.222;2023-04-25T08:52:47;11.10;99.90
20081;DHT22;10200;49.232;9.222;2023-04-25T08:55:13;11.00;99.90
20081;DHT22;10200;49.232;9.222;2023-04-25T08:57:41;10.80;99.90
20081;DHT22;10200;49.232;9.222;2023-04-25T09:00:09;10.80;99.90
20081;DHT22;10200;49.232;9.222;2023-04-25T09:02:35;10.80;99.90
20081;DHT22;10200;49.232;9.222;2023-04-25T09:05:02;10.70;99.90
20081;DHT22;10200;49.232;9.222;2023-04-25T09:07:29;10.80;99.90
20081;DHT22;10200;49.232;9.222;2023-04-25T09:09:55;10.90;99.90
20081;DHT22;10200;49.232;9.222;2023-04-25T09:12:21;10.90;99.90
20081;DHT22;10200;49.232;9.222;2023-04-25T09:15:05;11.10;99.90
20081;DHT22;10200;49.232;9.222;2023-04-25T09:17:31;11.20;99.90
20081;DHT22;10200;49.232;9.222;2023-04-25T09:20:09;11.30;99.90
20081;DHT22;10200;49.232;9.222;2023-04-25T09:22:36;11.50;99.90
20081;DHT22;10200;49.232;9.222;2023-04-25T09:25:10;11.70;99.90
20081;DHT22;10200;49.232;9.222;2023-04-25T09:27:36;11.80;99.90
20081;DHT22;10200;49.232;9.222;2023-04-25T09:30:15;12.00;99.90
20081;DHT22;10200;49.232;9.222;2023-04-25T09:32:42;12.00;99.90
20081;DHT22;10200;49.232;9.222;2023-04-25T09:35:08;12.20;99.90
20081;DHT22;10200;49.232;9.222;2023-04-25T09:37:34;12.40;99.90
20081;DHT22;10200;49.232;9.222;2023-04-25T09:40:04;12.50;99.90
20081;DHT22;10200;49.232;9.222;2023-04-25T09:42:31;12.50;99.90
20081;DHT22;10200;49.232;9.222;2023-04-25T09:45:00;12.60;99.90
20081;DHT22;10200;49.232;9.222;2023-04-25T09:47:29;12.60;99.90
20081;DHT22;10200;49.232;9.222;2023-04-25T09:49:55;12.70;99.90
20081;DHT22;10200;49.232;9.222;2023-04-25T09:52:22;12.90;99.90
20081;DHT22;10200;49.232;9.222;2023-04-25T09:54:49;13.00;99.90
20081;DHT22;10200;49.232;9.222;2023-04-25T09:57:19;13.10;99.90
20081;DHT22;10200;49.232;9.222;2023-04-25T09:59:46;13.20;99.90
20081;DHT22;10200;49.232;9.222;2023-04-25T10:02:14;13.40;99.90
20081;DHT22;10200;49.232;9.222;2023-04-25T10:04:40;13.40;99.90
20081;DHT22;10200;49.232;9.222;2023-04-25T10:07:08;13.50;99.90
20081;DHT22;10200;49.232;9.222;2023-04-25T10:09:36;13.80;99.90
20081;DHT22;10200;49.232;9.222;2023-04-25T10:12:03;13.80;99.50
20081;DHT22;10200;49.232;9.222;2023-04-25T10:14:32;14.00;98.80
20081;DHT22;10200;49.232;9.222;2023-04-25T10:16:58;14.10;96.90
20081;DHT22;10200;49.232;9.222;2023-04-25T10:19:25;14.20;95.10
20081;DHT22;10200;49.232;9.222;2023-04-25T10:22:20;14.20;94.10
20081;DHT22;10200;49.232;9.222;2023-04-25T10:24:49;14.30;93.70
20081;DHT22;10200;49.232;9.222;2023-04-25T10:27:16;14.50;91.90
20081;DHT22;10200;49.232;9.222;2023-04-25T10:29:42;14.90;93.30
20081;DHT22;10200;49.232;9.222;2023-04-25T10:32:10;15.20;90.80
20081;DHT22;10200;49.232;9.222;2023-04-25T10:34:43;15.30;88.20
20081;DHT22;10200;49.232;9.222;2023-04-25T10:37:12;15.40;85.20
20081;DHT22;10200;49.232;9.222;2023-04-25T10:39:40;15.40;82.50
20081;DHT22;10200;49.232;9.222;2023-04-25T10:42:06;15.50;81.10
20081;DHT22;10200;49.232;9.222;2023-04-25T10:44:33;15.60;80.80
20081;DHT22;10200;49.232;9.222;2023-04-25T10:47:01;15.70;76.80
20081;DHT22;10200;49.232;9.222;2023-04-25T10:49:32;15.90;78.50
20081;DHT22;10200;49.232;9.222;2023-04-25T10:54:47;16.10;73.90
20081;DHT22;10200;49.232;9.222;2023-04-25T11:02:59;15.10;75.60
20081;DHT22;10200;49.232;9.222;2023-04-25T11:05:35;14.70;75.60
20081;DHT22;10200;49.232;9.222;2023-04-25T11:08:02;14.50;77.10
20081;DHT22;10200;49.232;9.222;2023-04-25T11:10:30;14.50;80.80
20081;DHT22;10200;49.232;9.222;2023-04-25T11:12:57;14.80;79.90
20081;DHT22;10200;49.232;9.222;2023-04-25T11:15:23;15.20;82.70
20081;DHT22;10200;49.232;9.222;2023-04-25T11:17:51;15.30;78.00
20081;DHT22;10200;49.232;9.222;2023-04-25T11:20:17;15.70;80.20
20081;DHT22;10200;49.232;9.222;2023-04-25T11:22:46;15.90;78.10
20081;DHT22;10200;49.232;9.222;2023-04-25T11:25:14;15.90;74.40
20081;DHT22;10200;49.232;9.222;2023-04-25T11:27:53;15.60;71.90
20081;DHT22;10200;49.232;9.222;2023-04-25T11:30:20;15.50;73.30
20081;DHT22;10200;49.232;9.222;2023-04-25T11:32:46;15.40;73.60
20081;DHT22;10200;49.232;9.222;2023-04-25T11:35:12;15.10;72.00
20081;DHT22;10200;49.232;9.222;2023-04-25T11:37:43;15.00;73.40
20081;DHT22;10200;49.232;9.222;2023-04-25T11:40:09;14.80;74.10
20081;DHT22;10200;49.232;9.222;2023-04-25T11:42:44;14.70;74.10
20081;DHT22;10200;49.232;9.222;2023-04-25T11:45:10;14.60;75.50
20081;DHT22;10200;49.232;9.222;2023-04-25T11:47:36;14.50;75.80
20081;DHT22;10200;49.232;9.222;2023-04-25T11:50:04;14.40;76.30
20081;DHT22;10200;49.232;9.222;2023-04-25T11:52:42;14.50;77.20
20081;DHT22;10200;49.232;9.222;2023-04-25T11:57:42;14.50;78.70
20081;DHT22;10200;49.232;9.222;2023-04-25T12:00:19;14.30;76.40
20081;DHT22;10200;49.232;9.222;2023-04-25T12:02:56;14.20;75.30
20081;DHT22;10200;49.232;9.222;2023-04-25T12:05:30;14.10;75.90
20081;DHT22;10200;49.232;9.222;2023-04-25T12:08:09;14.00;74.90
20081;DHT22;10200;49.232;9.222;2023-04-25T12:10:40;14.00;75.60
20081;DHT22;10200;49.232;9.222;2023-04-25T12:13:23;14.00;75.90
20081;DHT22;10200;49.232;9.222;2023-04-25T12:15:50;14.10;76.10
20081;DHT22;10200;49.232;9.222;2023-04-25T12:18:25;14.10;76.80
20081;DHT22;10200;49.232;9.222;2023-04-25T12:20:54;14.20;76.00
20081;DHT22;10200;49.232;9.222;2023-04-25T12:23:29;14.40;77.00
20081;DHT22;10200;49.232;9.222;2023-04-25T12:25:55;14.50;76.40
20081;DHT22;10200;49.232;9.222;2023-04-25T12:28:23;14.70;77.10
20081;DHT22;10200;49.232;9.222;2023-04-25T12:31:06;14.90;77.10
20081;DHT22;10200;49.232;9.222;2023-04-25T12:33:36;15.20;77.40
20081;DHT22;10200;49.232;9.222;2023-04-25T12:36:03;15.50;75.50
20081;DHT22;10200;49.232;9.222;2023-04-25T12:38:37;15.40;74.70
20081;DHT22;10200;49.232;9.222;2023-04-25T12:41:03;15.30;73.70
20081;DHT22;10200;49.232;9.222;2023-04-25T12:43:28;15.00;71.60
20081;DHT22;10200;49.232;9.222;2023-04-25T12:45:55;14.70;71.40
20081;DHT22;10200;49.232;9.222;2023-04-25T12:48:21;14.60;71.80
20081;DHT22;10200;49.232;9.222;2023-04-25T12:50:47;14.40;72.40
20081;DHT22;10200;49.232;9.222;2023-04-25T12:53:15;14.30;72.00
20081;DHT22;10200;49.232;9.222;2023-04-25T12:55:41;14.30;73.70
20081;DHT22;10200;49.232;9.222;2023-04-25T12:58:06;14.50;76.20
20081;DHT22;10200;49.232;9.222;2023-04-25T13:00:33;14.60;75.50
20081;DHT22;10200;49.232;9.222;2023-04-25T13:02:58;14.70;75.30
20081;DHT22;10200;49.232;9.222;2023-04-25T13:05:25;14.90;75.30
20081;DHT22;10200;49.232;9.222;2023-04-25T13:07:51;15.00;74.50
20081;DHT22;10200;49.232;9.222;2023-04-25T13:10:17;15.20;75.40
20081;DHT22;10200;49.232;9.222;2023-04-25T13:12:43;15.20;74.00
20081;DHT22;10200;49.232;9.222;2023-04-25T13:15:09;15.30;72.90
20081;DHT22;10200;49.232;9.222;2023-04-25T13:17:37;15.30;71.90
20081;DHT22;10200;49.232;9.222;2023-04-25T13:20:04;15.50;71.80
20081;DHT22;10200;49.232;9.222;2023-04-25T13:22:32;15.60;70.40
20081;DHT22;10200;49.232;9.222;2023-04-25T13:24:57;15.60;68.60
20081;DHT22;10200;49.232;9.222;2023-04-25T13:27:23;15.60;70.30
20081;DHT22;10200;49.232;9.222;2023-04-25T13:29:49;15.60;70.70
20081;DHT22;10200;49.232;9.222;2023-04-25T13:32:14;15.30;70.30
20081;DHT22;10200;49.232;9.222;2023-04-25T13:34:40;15.10;70.80
20081;DHT22;10200;49.232;9.222;2023-04-25T13:37:06;14.90;70.90
20081;DHT22;10200;49.232;9.222;2023-04-25T13:39:31;14.70;72.30
20081;DHT22;10200;49.232;9.222;2023-04-25T13:41:57;14.60;72.80
20081;DHT22;10200;49.232;9.222;2023-04-25T13:44:22;14.50;73.20
20081;DHT22;10200;49.232;9.222;2023-04-25T13:46:48;14.50;72.30
20081;DHT22;10200;49.232;9.222;2023-04-25T13:49:14;14.60;72.10
20081;DHT22;10200;49.232;9.222;2023-04-25T13:51:40;14.80;70.80
20081;DHT22;10200;49.232;9.222;2023-04-25T13:54:06;15.00;69.00
20081;DHT22;10200;49.232;9.222;2023-04-25T13:56:31;15.10;68.80
20081;DHT22;10200;49.232;9.222;2023-04-25T13:58:57;15.30;68.10
20081;DHT22;10200;49.232;9.222;2023-04-25T14:01:23;15.20;66.30
20081;DHT22;10200;49.232;9.222;2023-04-25T14:03:49;15.20;65.90
20081;DHT22;10200;49.232;9.222;2023-04-25T14:06:14;15.10;65.70
20081;DHT22;10200;49.232;9.222;2023-04-25T14:08:46;15.20;66.20
20081;DHT22;10200;49.232;9.222;2023-04-25T14:11:12;15.30;66.40
20081;DHT22;10200;49.232;9.222;2023-04-25T14:13:37;15.50;67.30
20081;DHT22;10200;49.232;9.222;2023-04-25T14:16:03;15.70;66.00
20081;DHT22;10200;49.232;9.222;2023-04-25T14:18:29;15.80;64.40
20081;DHT22;10200;49.232;9.222;2023-04-25T14:20:54;15.70;64.50
20081;DHT22;10200;49.232;9.222;2023-04-25T14:23:20;15.60;64.30
20081;DHT22;10200;49.232;9.222;2023-04-25T14:25:46;15.60;64.30
20081;DHT22;10200;49.232;9.222;2023-04-25T14:28:11;15.60;64.00
20081;DHT22;10200;49.232;9.222;2023-04-25T14:30:37;15.50;63.20
20081;DHT22;10200;49.232;9.222;2023-04-25T14:33:03;15.50;63.10
20081;DHT22;10200;49.232;9.222;2023-04-25T14:35:28;15.60;62.80
20081;DHT22;10200;49.232;9.222;2023-04-25T14:37:54;15.70;62.70
20081;DHT22;10200;49.232;9.222;2023-04-25T14:40:20;15.80;61.80
20081;DHT22;10200;49.232;9.222;2023-04-25T14:42:48;15.60;60.70
20081;DHT22;10200;49.232;9.222;2023-04-25T14:45:14;15.40;60.00
20081;DHT22;10200;49.232;9.222;2023-04-25T14:47:39;15.20;60.90
20081;DHT22;10200;49.232;9.222;2023-04-25T14:50:06;15.20;62.30
20081;DHT22;10200;49.232;9.222;2023-04-25T14:52:32;15.10;63.30
20081;DHT22;10200;49.232;9.222;2023-04-25T14:54:58;15.20;64.60
20081;DHT22;10200;49.232;9.222;2023-04-25T14:57:25;15.40;64.20
20081;DHT22;10200;49.232;9.222;2023-04-25T14:59:51;15.60;63.30
20081;DHT22;10200;49.232;9.222;2023-04-25T15:02:17;15.50;62.70
20081;DHT22;10200;49.232;9.222;2023-04-25T15:04:42;15.40;62.70
20081;DHT22;10200;49.232;9.222;2023-04-25T15:07:08;15.30;62.50
20081;DHT22;10200;49.232;9.222;2023-04-25T15:09:34;15.30;63.60
20081;DHT22;10200;49.232;9.222;2023-04-25T15:11:59;15.20;62.50
20081;DHT22;10200;49.232;9.222;2023-04-25T15:14:25;15.10;63.30
20081;DHT22;10200;49.232;9.222;2023-04-25T15:16:51;15.10;63.30
20081;DHT22;10200;49.232;9.222;2023-04-25T15:19:17;15.20;64.30
20081;DHT22;10200;49.232;9.222;2023-04-25T15:21:43;15.40;64.60
20081;DHT22;10200;49.232;9.222;2023-04-25T15:24:08;15.40;63.40
20081;DHT22;10200;49.232;9.222;2023-04-25T15:26:34;15.40;61.00
20081;DHT22;10200;49.232;9.222;2023-04-25T15:28:59;15.20;59.80
20081;DHT22;10200;49.232;9.222;2023-04-25T15:31:25;15.00;59.90
20081;DHT22;10200;49.232;9.222;2023-04-25T15:33:51;15.00;60.80
20081;DHT22;10200;49.232;9.222;2023-04-25T15:36:16;14.90;60.70
20081;DHT22;10200;49.232;9.222;2023-04-25T15:38:43;14.80;60.90
20081;DHT22;10200;49.232;9.222;2023-04-25T15:41:09;14.80;62.40
20081;DHT22;10200;49.232;9.222;2023-04-25T15:43:35;14.80;62.60
20081;DHT22;10200;49.232;9.222;2023-04-25T15:46:03;14.70;63.00
20081;DHT22;10200;49.232;9.222;2023-04-25T15:48:29;14.70;63.40